sensor_id;sensor_type;location;lat;lon;timestamp;P1;durP1;ratioP1;P2;durP2;ratioP2
1679;SDS011;838;51.794;12.258;2023-04-16T00:02:18;15.60;;;11.40;;
1679;SDS011;838;51.794;12.258;2023-04-16T00:04:44;14.80;;;11.20;;
1679;SDS011;838;51.794;12.258;2023-04-16T00:07:10;14.23;;;11.37;;
1679;SDS011;838;51.794;12.258;2023-04-16T00:09:35;16.13;;;11.70;;
1679;SDS011;838;51.794;12.258;2023-04-16T00:12:01;17.27;;;12.33;;
1679;SDS011;838;51.794;12.258;2023-04-16T00:14:28;16.30;;;12.00;;
1679;SDS011;838;51.794;12.258;2023-04-16T00:16:54;16.37;;;11.07;;
1679;SDS011;838;51.794;12.258;2023-04-16T00:19:20;17.10;;;12.20;;
1679;SDS011;838;51.794;12.258;2023-04-16T00:21:45;16.63;;;12.00;;
1679;SDS011;838;51.794;12.258;2023-04-16T00:24:11;18.60;;;13.83;;
1679;SDS011;838;51.794;12.258;2023-04-16T00:26:37;18.50;;;13.73;;
1679;SDS011;838;51.794;12.258;2023-04-16T00:29:03;22.40;;;13.83;;
1679;SDS011;838;51.794;12.258;2023-04-16T00:31:30;21.00;;;13.40;;
1679;SDS011;838;51.794;12.258;2023-04-16T00:33:57;18.07;;;13.30;;
1679;SDS011;838;51.794;12.258;2023-04-16T00:36:23;19.90;;;13.80;;
1679;SDS011;838;51.794;12.258;2023-04-16T00:38:51;18.27;;;12.57;;
1679;SDS011;838;51.794;12.258;2023-04-16T00:41:17;20.40;;;13.77;;
1679;SDS011;838;51.794;12.258;2023-04-16T00:43:43;18.73;;;13.43;;
1679;SDS011;838;51.794;12.258;2023-04-16T00:46:09;19.10;;;13.00;;
1679;SDS011;838;51.794;12.258;2023-04-16T00:48:36;20.70;;;13.80;;
1679;SDS011;838;51.794;12.258;2023-04-16T00:51:04;17.73;;;12.57;;
1679;SDS011;838;51.794;12.258;2023-04-16T00:53:30;19.20;;;12.80;;
1679;SDS011;838;51.794;12.258;2023-04-16T00:55:58;21.77;;;13.57;;
1679;SDS011;838;51.794;12.258;2023-04-16T00:58:24;21.03;;;13.67;;
1679;SDS011;838;51.794;12.258;2023-04-16T01:00:50;22.43;;;13.87;;
1679;SDS011;838;51.794;12.258;2023-04-16T01:03:16;19.60;;;12.80;;
1679;SDS011;838;51.794;12.258;2023-04-16T01:05:42;18.97;;;12.83;;
1679;SDS011;838;51.794;12.258;2023-04-16T01:08:16;14.93;;;11.33;;
1679;SDS011;838;51.794;12.258;2023-04-16T01:10:43;17.53;;;12.40;;
1679;SDS011;838;51.794;12.258;2023-04-16T01:13:09;18.20;;;13.80;;
1679;SDS011;838;51.794;12.258;2023-04-16T01:15:35;19.00;;;12.37;;
1679;SDS011;838;51.794;12.258;2023-04-16T01:18:01;21.37;;;13.93;;
1679;SDS011;838;51.794;12.258;2023-04-16T01:20:27;22.70;;;16.37;;
1679;SDS011;838;51.794;12.258;2023-04-16T01:22:53;28.27;;;17.67;;
1679;SDS011;838;51.794;12.258;2023-04-16T01:25:19;24.00;;;17.80;;
1679;SDS011;838;51.794;12.258;2023-04-16T01:27:48;27.20;;;17.97;;
1679;SDS011;838;51.794;12.258;2023-04-16T01:30:14;33.07;;;21.17;;
1679;SDS011;838;51.794;12.258;2023-04-16T01:32:39;31.67;;;21.07;;
1679;SDS011;838;51.794;12.258;2023-04-16T01:35:05;35.67;;;24.40;;
1679;SDS011;838;51.794;12.258;2023-04-16T01:37:31;35.70;;;24.10;;
1679;SDS011;838;51.794;12.258;2023-04-16T01:39:57;37.63;;;23.93;;
1679;SDS011;838;51.794;12.258;2023-04-16T01:42:23;39.30;;;25.23;;
1679;SDS011;838;51.794;12.258;2023-04-16T01:44:49;45.10;;;27.73;;
1679;SDS011;838;51.794;12.258;2023-04-16T01:47:15;46.87;;;28.20;;
1679;SDS011;838;51.794;12.258;2023-04-16T01:49:41;48.33;;;30.20;;
1679;SDS011;838;51.794;12.258;2023-04-16T01:52:09;46.67;;;29.23;;
1679;SDS011;838;51.794;12.258;2023-04-16T01:54:35;52.93;;;29.90;;
1679;SDS011;838;51.794;12.258;2023-04-16T01:57:01;51.73;;;31.37;;
1679;SDS011;838;51.794;12.258;2023-04-16T01:59:27;53.23;;;32.00;;
1679;SDS011;838;51.794;12.258;2023-04-16T02:01:52;52.47;;;30.73;;
1679;SDS011;838;51.794;12.258;2023-04-16T02:04:18;47.77;;;30.73;;
1679;SDS011;838;51.794;12.258;2023-04-16T02:06:44;51.40;;;31.80;;
1679;SDS011;838;51.794;12.258;2023-04-16T02:09:10;49.60;;;30.07;;
1679;SDS011;838;51.794;12.258;2023-04-16T02:11:36;41.73;;;28.23;;
1679;SDS011;838;51.794;12.258;2023-04-16T02:14:01;47.93;;;31.63;;
1679;SDS011;838;51.794;12.258;2023-04-16T02:16:27;46.43;;;30.70;;
1679;SDS011;838;51.794;12.258;2023-04-16T02:18:53;47.50;;;31.87;;
1679;SDS011;838;51.794;12.258;2023-04-16T02:21:18;48.67;;;29.40;;
1679;SDS011;838;51.794;12.258;2023-04-16T02:23:44;52.90;;;29.30;;
1679;SDS011;838;51.794;12.258;2023-04-16T02:26:12;42.40;;;29.07;;
1679;SDS011;838;51.794;12.258;2023-04-16T02:28:37;49.27;;;30.80;;
1679;SDS011;838;51.794;12.258;2023-04-16T02:31:03;48.17;;;30.13;;
1679;SDS011;838;51.794;12.258;2023-04-16T02:33:29;47.20;;;29.30;;
1679;SDS011;838;51.794;12.258;2023-04-16T02:35:56;43.13;;;30.17;;
1679;SDS011;838;51.794;12.258;2023-04-16T02:38:21;45.37;;;29.77;;
1679;SDS011;838;51.794;12.258;2023-04-16T02:40:47;38.97;;;27.07;;
1679;SDS011;838;51.794;12.258;2023-04-16T02:43:13;42.77;;;28.30;;
1679;SDS011;838;51.794;12.258;2023-04-16T02:45:38;45.13;;;29.60;;
1679;SDS011;838;51.794;12.258;2023-04-16T02:48:04;40.63;;;28.27;;
1679;SDS011;838;51.794;12.258;2023-04-16T02:50:32;36.13;;;25.13;;
1679;SDS011;838;51.794;12.258;2023-04-16T02:52:58;38.37;;;26.00;;
1679;SDS011;838;51.794;12.258;2023-04-16T02:55:24;41.57;;;27.30;;
1679;SDS011;838;51.794;12.258;2023-04-16T02:57:50;40.80;;;26.50;;
1679;SDS011;838;51.794;12.258;2023-04-16T03:00:17;38.20;;;26.90;;
1679;SDS011;838;51.794;12.258;2023-04-16T03:02:43;40.93;;;27.70;;
1679;SDS011;838;51.794;12.258;2023-04-16T03:05:09;38.13;;;24.53;;
1679;SDS011;838;51.794;12.258;2023-04-16T03:07:36;36.87;;;24.67;;
1679;SDS011;838;51.794;12.258;2023-04-16T03:10:05;38.43;;;24.90;;
1679;SDS011;838;51.794;12.258;2023-04-16T03:12:31;38.03;;;24.83;;
1679;SDS011;838;51.794;12.258;2023-04-16T03:14:57;35.20;;;24.80;;
1679;SDS011;838;51.794;12.258;2023-04-16T03:17:23;38.97;;;26.10;;
1679;SDS011;838;51.794;12.258;2023-04-16T03:19:49;35.50;;;24.40;;
1679;SDS011;838;51.794;12.258;2023-04-16T03:22:15;33.90;;;25.00;;
1679;SDS011;838;51.794;12.258;2023-04-16T03:24:41;32.80;;;23.90;;
1679;SDS011;838;51.794;12.258;2023-04-16T03:27:06;33.13;;;23.80;;
1679;SDS011;838;51.794;12.258;2023-04-16T03:29:32;32.43;;;23.90;;
1679;SDS011;838;51.794;12.258;2023-04-16T03:32:02;37.57;;;24.37;;
1679;SDS011;838;51.794;12.258;2023-04-16T03:34:27;36.67;;;25.00;;
1679;SDS011;838;51.794;12.258;2023-04-16T03:36:53;36.00;;;23.20;;
1679;SDS011;838;51.794;12.258;2023-04-16T03:39:19;31.30;;;23.83;;
1679;SDS011;838;51.794;12.258;2023-04-16T03:41:45;36.80;;;23.97;;
1679;SDS011;838;51.794;12.258;2023-04-16T03:44:10;37.80;;;22.63;;
1679;SDS011;838;51.794;12.258;2023-04-16T03:46:36;36.90;;;23.07;;
1679;SDS011;838;51.794;12.258;2023-04-16T03:49:02;31.03;;;22.57;;
1679;SDS011;838;51.794;12.258;2023-04-16T03:51:28;33.50;;;22.53;;
1679;SDS011;838;51.794;12.258;2023-04-16T03:53:53;34.30;;;23.50;;
1679;SDS011;838;51.794;12.258;2023-04-16T03:56:20;32.70;;;22.23;;
1679;SDS011;838;51.794;12.258;2023-04-16T03:58:45;34.60;;;22.73;;
1679;SDS011;838;51.794;12.258;2023-04-16T04:01:11;32.70;;;23.23;;
1679;SDS011;838;51.794;12.258;2023-04-16T04:03:37;32.70;;;23.63;;
1679;SDS011;838;51.794;12.258;2023-04-16T04:06:06;37.23;;;24.20;;
1679;SDS011;838;51.794;12.258;2023-04-16T04:08:33;34.50;;;24.50;;
1679;SDS011;838;51.794;12.258;2023-04-16T04:10:58;37.47;;;24.63;;
1679;SDS011;838;51.794;12.258;2023-04-16T04:13:24;31.80;;;24.03;;
1679;SDS011;838;51.794;12.258;2023-04-16T04:15:50;36.50;;;24.13;;
1679;SDS011;838;51.794;12.258;2023-04-16T04:18:16;39.40;;;26.17;;
1679;SDS011;838;51.794;12.258;2023-04-16T04:20:41;39.07;;;26.60;;
1679;SDS011;838;51.794;12.258;2023-04-16T04:23:08;36.90;;;25.87;;
1679;SDS011;838;51.794;12.258;2023-04-16T04:25:34;37.30;;;26.10;;
1679;SDS011;838;51.794;12.258;2023-04-16T04:28:00;39.50;;;26.83;;
1679;SDS011;838;51.794;12.258;2023-04-16T04:30:25;39.07;;;26.63;;
1679;SDS011;838;51.794;12.258;2023-04-16T04:32:51;38.17;;;24.60;;
1679;SDS011;838;51.794;12.258;2023-04-16T04:35:17;36.80;;;26.53;;
1679;SDS011;838;51.794;12.258;2023-04-16T04:37:43;40.27;;;26.80;;
1679;SDS011;838;51.794;12.258;2023-04-16T04:40:09;44.43;;;28.30;;
1679;SDS011;838;51.794;12.258;2023-04-16T04:42:37;39.40;;;28.10;;
1679;SDS011;838;51.794;12.258;2023-04-16T04:45:03;40.73;;;28.70;;
1679;SDS011;838;51.794;12.258;2023-04-16T04:47:29;43.83;;;28.70;;
1679;SDS011;838;51.794;12.258;2023-04-16T04:49:55;40.10;;;29.30;;
1679;SDS011;838;51.794;12.258;2023-04-16T04:52:21;46.43;;;31.20;;
1679;SDS011;838;51.794;12.258;2023-04-16T04:54:46;46.77;;;31.20;;
1679;SDS011;838;51.794;12.258;2023-04-16T04:57:12;40.83;;;28.13;;
1679;SDS011;838;51.794;12.258;2023-04-16T04:59:38;48.40;;;29.23;;
1679;SDS011;838;51.794;12.258;2023-04-16T05:02:03;47.93;;;30.03;;
1679;SDS011;838;51.794;12.258;2023-04-16T05:04:29;51.30;;;29.70;;
1679;SDS011;838;51.794;12.258;2023-04-16T05:06:55;45.63;;;30.60;;
1679;SDS011;838;51.794;12.258;2023-04-16T05:09:21;45.83;;;30.63;;
1679;SDS011;838;51.794;12.258;2023-04-16T05:11:46;57.73;;;30.83;;
1679;SDS011;838;51.794;12.258;2023-04-16T05:14:12;48.27;;;29.93;;
1679;SDS011;838;51.794;12.258;2023-04-16T05:16:38;56.27;;;31.33;;
1679;SDS011;838;51.794;12.258;2023-04-16T05:19:03;49.23;;;31.10;;
1679;SDS011;838;51.794;12.258;2023-04-16T05:21:29;48.37;;;33.10;;
1679;SDS011;838;51.794;12.258;2023-04-16T05:23:55;49.67;;;29.77;;
1679;SDS011;838;51.794;12.258;2023-04-16T05:26:21;53.93;;;30.23;;
1679;SDS011;838;51.794;12.258;2023-04-16T05:28:47;50.67;;;31.50;;
1679;SDS011;838;51.794;12.258;2023-04-16T05:31:12;51.33;;;31.20;;
1679;SDS011;838;51.794;12.258;2023-04-16T05:33:38;54.70;;;31.77;;
1679;SDS011;838;51.794;12.258;2023-04-16T05:36:04;49.50;;;28.93;;
1679;SDS011;838;51.794;12.258;2023-04-16T05:38:30;48.00;;;31.87;;
1679;SDS011;838;51.794;12.258;2023-04-16T05:40:56;46.47;;;30.00;;
1679;SDS011;838;51.794;12.258;2023-04-16T05:43:22;53.90;;;30.13;;
1679;SDS011;838;51.794;12.258;2023-04-16T05:45:48;48.93;;;30.83;;
1679;SDS011;838;51.794;12.258;2023-04-16T05:48:14;50.20;;;30.30;;
1679;SDS011;838;51.794;12.258;2023-04-16T05:50:40;49.20;;;31.00;;
1679;SDS011;838;51.794;12.258;2023-04-16T05:53:06;45.17;;;31.50;;
1679;SDS011;838;51.794;12.258;2023-04-16T05:55:33;51.17;;;31.37;;
1679;SDS011;838;51.794;12.258;2023-04-16T05:58:00;54.80;;;32.07;;
1679;SDS011;838;51.794;12.258;2023-04-16T06:00:28;49.13;;;30.03;;
1679;SDS011;838;51.794;12.258;2023-04-16T06:02:54;57.13;;;31.77;;
1679;SDS011;838;51.794;12.258;2023-04-16T06:05:20;48.60;;;31.20;;
1679;SDS011;838;51.794;12.258;2023-04-16T06:07:46;45.27;;;29.60;;
1679;SDS011;838;51.794;12.258;2023-04-16T06:10:12;53.50;;;32.00;;
1679;SDS011;838;51.794;12.258;2023-04-16T06:12:37;50.30;;;31.27;;
1679;SDS011;838;51.794;12.258;2023-04-16T06:15:03;57.37;;;33.23;;
1679;SDS011;838;51.794;12.258;2023-04-16T06:17:29;51.13;;;33.30;;
1679;SDS011;838;51.794;12.258;2023-04-16T06:19:55;56.37;;;33.43;;
1679;SDS011;838;51.794;12.258;2023-04-16T06:22:21;62.57;;;32.73;;
1679;SDS011;838;51.794;12.258;2023-04-16T06:24:48;49.53;;;31.90;;
1679;SDS011;838;51.794;12.258;2023-04-16T06:27:13;51.17;;;33.83;;
1679;SDS011;838;51.794;12.258;2023-04-16T06:29:39;50.90;;;32.07;;
1679;SDS011;838;51.794;12.258;2023-04-16T06:32:06;53.47;;;32.67;;
1679;SDS011;838;51.794;12.258;2023-04-16T06:34:32;53.33;;;30.10;;
1679;SDS011;838;51.794;12.258;2023-04-16T06:36:57;51.77;;;29.47;;
1679;SDS011;838;51.794;12.258;2023-04-16T06:39:23;48.73;;;28.40;;
1679;SDS011;838;51.794;12.258;2023-04-16T06:41:49;46.40;;;31.10;;
1679;SDS011;838;51.794;12.258;2023-04-16T06:44:15;48.73;;;27.60;;
1679;SDS011;838;51.794;12.258;2023-04-16T06:46:41;45.07;;;28.93;;
1679;SDS011;838;51.794;12.258;2023-04-16T06:49:06;45.13;;;31.10;;
1679;SDS011;838;51.794;12.258;2023-04-16T06:51:32;46.67;;;30.90;;
1679;SDS011;838;51.794;12.258;2023-04-16T06:53:58;44.90;;;29.90;;
1679;SDS011;838;51.794;12.258;2023-04-16T06:56:24;42.60;;;28.60;;
1679;SDS011;838;51.794;12.258;2023-04-16T06:58:50;48.30;;;29.27;;
1679;SDS011;838;51.794;12.258;2023-04-16T07:01:16;46.47;;;30.30;;
1679;SDS011;838;51.794;12.258;2023-04-16T07:03:42;39.93;;;26.80;;
1679;SDS011;838;51.794;12.258;2023-04-16T07:06:08;45.50;;;28.40;;
1679;SDS011;838;51.794;12.258;2023-04-16T07:08:34;42.60;;;28.30;;
1679;SDS011;838;51.794;12.258;2023-04-16T07:11:00;41.43;;;27.27;;
1679;SDS011;838;51.794;12.258;2023-04-16T07:13:26;45.90;;;30.27;;
1679;SDS011;838;51.794;12.258;2023-04-16T07:15:51;40.90;;;27.37;;
1679;SDS011;838;51.794;12.258;2023-04-16T07:18:18;41.20;;;24.93;;
1679;SDS011;838;51.794;12.258;2023-04-16T07:20:44;36.73;;;25.50;;
1679;SDS011;838;51.794;12.258;2023-04-16T07:23:10;38.80;;;26.57;;
1679;SDS011;838;51.794;12.258;2023-04-16T07:25:36;41.03;;;26.17;;
1679;SDS011;838;51.794;12.258;2023-04-16T07:28:02;38.10;;;25.30;;
1679;SDS011;838;51.794;12.258;2023-04-16T07:30:28;36.03;;;25.33;;
1679;SDS011;838;51.794;12.258;2023-04-16T07:33:02;37.13;;;25.20;;
1679;SDS011;838;51.794;12.258;2023-04-16T07:35:28;32.90;;;23.80;;
1679;SDS011;838;51.794;12.258;2023-04-16T07:37:55;31.13;;;23.63;;
1679;SDS011;838;51.794;12.258;2023-04-16T07:40:20;35.30;;;25.40;;
1679;SDS011;838;51.794;12.258;2023-04-16T07:42:47;29.10;;;21.73;;
1679;SDS011;838;51.794;12.258;2023-04-16T07:45:12;31.13;;;22.30;;
1679;SDS011;838;51.794;12.258;2023-04-16T07:47:38;34.00;;;22.40;;
1679;SDS011;838;51.794;12.258;2023-04-16T07:50:04;33.40;;;21.57;;
1679;SDS011;838;51.794;12.258;2023-04-16T07:52:30;35.70;;;24.47;;
1679;SDS011;838;51.794;12.258;2023-04-16T07:54:56;29.70;;;20.63;;
1679;SDS011;838;51.794;12.258;2023-04-16T07:57:22;31.73;;;20.87;;
1679;SDS011;838;51.794;12.258;2023-04-16T07:59:47;28.10;;;20.90;;
1679;SDS011;838;51.794;12.258;2023-04-16T08:02:14;29.70;;;20.70;;
1679;SDS011;838;51.794;12.258;2023-04-16T08:04:43;33.17;;;20.77;;
1679;SDS011;838;51.794;12.258;2023-04-16T08:07:09;25.67;;;18.40;;
1679;SDS011;838;51.794;12.258;2023-04-16T08:09:35;33.73;;;23.30;;
1679;SDS011;838;51.794;12.258;2023-04-16T08:12:01;30.03;;;20.70;;
1679;SDS011;838;51.794;12.258;2023-04-16T08:14:27;30.27;;;22.80;;
1679;SDS011;838;51.794;12.258;2023-04-16T08:16:53;26.43;;;19.80;;
1679;SDS011;838;51.794;12.258;2023-04-16T08:19:19;28.90;;;22.07;;
1679;SDS011;838;51.794;12.258;2023-04-16T08:21:45;29.13;;;21.10;;
1679;SDS011;838;51.794;12.258;2023-04-16T08:24:11;26.03;;;18.67;;
1679;SDS011;838;51.794;12.258;2023-04-16T08:26:36;27.57;;;19.50;;
1679;SDS011;838;51.794;12.258;2023-04-16T08:29:02;27.23;;;20.27;;
1679;SDS011;838;51.794;12.258;2023-04-16T08:31:28;26.43;;;19.27;;
1679;SDS011;838;51.794;12.258;2023-04-16T08:33:54;21.20;;;17.73;;
1679;SDS011;838;51.794;12.258;2023-04-16T08:36:20;27.83;;;19.20;;
1679;SDS011;838;51.794;12.258;2023-04-16T08:38:45;25.87;;;18.70;;
1679;SDS011;838;51.794;12.258;2023-04-16T08:41:11;26.70;;;17.63;;
1679;SDS011;838;51.794;12.258;2023-04-16T08:43:38;32.67;;;23.00;;
1679;SDS011;838;51.794;12.258;2023-04-16T08:46:08;25.47;;;19.10;;
1679;SDS011;838;51.794;12.258;2023-04-16T08:48:36;23.17;;;15.90;;
1679;SDS011;838;51.794;12.258;2023-04-16T08:51:02;21.03;;;17.20;;
1679;SDS011;838;51.794;12.258;2023-04-16T08:56:36;23.30;;;16.17;;
1679;SDS011;838;51.794;12.258;2023-04-16T08:59:03;22.90;;;18.07;;
1679;SDS011;838;51.794;12.258;2023-04-16T09:01:31;24.20;;;17.70;;
1679;SDS011;838;51.794;12.258;2023-04-16T09:03:57;21.63;;;18.40;;
1679;SDS011;838;51.794;12.258;2023-04-16T09:06:26;22.60;;;15.73;;
1679;SDS011;838;51.794;12.258;2023-04-16T09:08:52;21.70;;;16.80;;
1679;SDS011;838;51.794;12.258;2023-04-16T09:11:19;22.43;;;18.00;;
1679;SDS011;838;51.794;12.258;2023-04-16T09:13:45;18.27;;;15.10;;
1679;SDS011;838;51.794;12.258;2023-04-16T09:16:12;23.83;;;18.20;;
1679;SDS011;838;51.794;12.258;2023-04-16T09:18:39;19.87;;;15.67;;
1679;SDS011;838;51.794;12.258;2023-04-16T09:21:06;19.90;;;15.80;;
1679;SDS011;838;51.794;12.258;2023-04-16T09:23:35;19.77;;;15.23;;
1679;SDS011;838;51.794;12.258;2023-04-16T09:26:03;17.43;;;13.63;;
1679;SDS011;838;51.794;12.258;2023-04-16T09:28:43;18.90;;;14.10;;
1679;SDS011;838;51.794;12.258;2023-04-16T09:31:13;17.37;;;14.43;;
1679;SDS011;838;51.794;12.258;2023-04-16T09:33:41;18.00;;;15.13;;
1679;SDS011;838;51.794;12.258;2023-04-16T09:36:07;21.00;;;16.00;;
1679;SDS011;838;51.794;12.258;2023-04-16T09:38:46;21.57;;;16.07;;
1679;SDS011;838;51.794;12.258;2023-04-16T09:41:16;20.60;;;14.50;;
1679;SDS011;838;51.794;12.258;2023-04-16T09:48:56;20.60;;;14.67;;
1679;SDS011;838;51.794;12.258;2023-04-16T09:51:22;22.23;;;15.40;;
1679;SDS011;838;51.794;12.258;2023-04-16T09:53:50;18.70;;;13.70;;
1679;SDS011;838;51.794;12.258;2023-04-16T09:56:18;21.73;;;16.00;;
1679;SDS011;838;51.794;12.258;2023-04-16T09:58:48;27.00;;;17.63;;
1679;SDS011;838;51.794;12.258;2023-04-16T10:01:16;25.80;;;16.93;;
1679;SDS011;838;51.794;12.258;2023-04-16T10:03:43;20.23;;;15.57;;
1679;SDS011;838;51.794;12.258;2023-04-16T10:06:15;21.17;;;16.43;;
1679;SDS011;838;51.794;12.258;2023-04-16T10:08:47;22.57;;;16.47;;
1679;SDS011;838;51.794;12.258;2023-04-16T10:11:14;25.20;;;20.63;;
1679;SDS011;838;51.794;12.258;2023-04-16T10:13:40;26.10;;;18.90;;
1679;SDS011;838;51.794;12.258;2023-04-16T10:16:06;24.50;;;18.70;;
1679;SDS011;838;51.794;12.258;2023-04-16T10:18:37;26.30;;;18.40;;
1679;SDS011;838;51.794;12.258;2023-04-16T10:21:05;26.37;;;18.83;;
1679;SDS011;838;51.794;12.258;2023-04-16T10:23:32;22.90;;;17.37;;
1679;SDS011;838;51.794;12.258;2023-04-16T10:25:59;28.03;;;18.97;;
1679;SDS011;838;51.794;12.258;2023-04-16T10:28:25;27.70;;;19.60;;
1679;SDS011;838;51.794;12.258;2023-04-16T10:30:53;25.50;;;18.10;;
1679;SDS011;838;51.794;12.258;2023-04-16T10:33:28;26.60;;;20.63;;
1679;SDS011;838;51.794;12.258;2023-04-16T10:38:39;32.63;;;19.50;;
1679;SDS011;838;51.794;12.258;2023-04-16T10:41:09;24.90;;;18.50;;
1679;SDS011;838;51.794;12.258;2023-04-16T10:43:39;28.53;;;18.53;;
1679;SDS011;838;51.794;12.258;2023-04-16T10:46:23;29.63;;;19.43;;
1679;SDS011;838;51.794;12.258;2023-04-16T10:49:01;25.40;;;19.10;;
1679;SDS011;838;51.794;12.258;2023-04-16T10:51:36;24.70;;;18.07;;
1679;SDS011;838;51.794;12.258;2023-04-16T10:54:03;27.47;;;18.57;;
1679;SDS011;838;51.794;12.258;2023-04-16T10:56:57;24.80;;;19.27;;
1679;SDS011;838;51.794;12.258;2023-04-16T10:59:29;22.83;;;17.97;;
1679;SDS011;838;51.794;12.258;2023-04-16T11:01:57;28.83;;;20.53;;
1679;SDS011;838;51.794;12.258;2023-04-16T11:09:42;31.30;;;22.27;;
1679;SDS011;838;51.794;12.258;2023-04-16T11:12:19;29.60;;;21.73;;
1679;SDS011;838;51.794;12.258;2023-04-16T11:14:49;26.93;;;20.00;;
1679;SDS011;838;51.794;12.258;2023-04-16T11:17:17;32.40;;;22.63;;
1679;SDS011;838;51.794;12.258;2023-04-16T11:19:44;30.80;;;22.27;;
1679;SDS011;838;51.794;12.258;2023-04-16T11:22:13;28.60;;;21.00;;
1679;SDS011;838;51.794;12.258;2023-04-16T11:24:42;31.80;;;21.07;;
1679;SDS011;838;51.794;12.258;2023-04-16T11:27:08;32.13;;;21.63;;
1679;SDS011;838;51.794;12.258;2023-04-16T11:29:36;29.57;;;21.33;;
1679;SDS011;838;51.794;12.258;2023-04-16T11:32:02;41.10;;;26.13;;
1679;SDS011;838;51.794;12.258;2023-04-16T11:34:28;30.70;;;20.83;;
1679;SDS011;838;51.794;12.258;2023-04-16T11:36:54;31.73;;;21.57;;
1679;SDS011;838;51.794;12.258;2023-04-16T11:39:20;32.60;;;23.43;;
1679;SDS011;838;51.794;12.258;2023-04-16T11:41:47;29.13;;;19.40;;
1679;SDS011;838;51.794;12.258;2023-04-16T11:46:48;25.70;;;19.37;;
1679;SDS011;838;51.794;12.258;2023-04-16T11:49:14;24.27;;;19.00;;
1679;SDS011;838;51.794;12.258;2023-04-16T11:51:45;26.93;;;18.43;;
1679;SDS011;838;51.794;12.258;2023-04-16T11:54:18;33.07;;;22.23;;
1679;SDS011;838;51.794;12.258;2023-04-16T11:56:45;30.37;;;21.90;;
1679;SDS011;838;51.794;12.258;2023-04-16T11:59:13;31.33;;;20.67;;
1679;SDS011;838;51.794;12.258;2023-04-16T12:01:45;26.10;;;20.03;;
1679;SDS011;838;51.794;12.258;2023-04-16T12:04:16;24.10;;;16.37;;
1679;SDS011;838;51.794;12.258;2023-04-16T12:09:28;22.40;;;17.70;;
1679;SDS011;838;51.794;12.258;2023-04-16T12:11:54;25.87;;;17.70;;
1679;SDS011;838;51.794;12.258;2023-04-16T12:14:21;23.83;;;17.43;;
1679;SDS011;838;51.794;12.258;2023-04-16T12:16:47;23.63;;;18.13;;
1679;SDS011;838;51.794;12.258;2023-04-16T12:19:13;22.10;;;17.40;;
1679;SDS011;838;51.794;12.258;2023-04-16T12:21:39;23.27;;;17.90;;
1679;SDS011;838;51.794;12.258;2023-04-16T12:24:06;24.60;;;17.37;;
1679;SDS011;838;51.794;12.258;2023-04-16T12:26:39;26.33;;;18.63;;
1679;SDS011;838;51.794;12.258;2023-04-16T12:29:13;26.47;;;18.70;;
1679;SDS011;838;51.794;12.258;2023-04-16T12:31:44;23.17;;;16.23;;
1679;SDS011;838;51.794;12.258;2023-04-16T12:34:10;23.03;;;17.63;;
1679;SDS011;838;51.794;12.258;2023-04-16T12:36:36;22.53;;;15.97;;
1679;SDS011;838;51.794;12.258;2023-04-16T12:39:02;22.70;;;17.80;;
1679;SDS011;838;51.794;12.258;2023-04-16T12:41:29;24.80;;;17.77;;
1679;SDS011;838;51.794;12.258;2023-04-16T12:44:04;22.03;;;16.63;;
1679;SDS011;838;51.794;12.258;2023-04-16T12:46:36;22.17;;;16.40;;
1679;SDS011;838;51.794;12.258;2023-04-16T12:49:03;21.10;;;16.03;;
1679;SDS011;838;51.794;12.258;2023-04-16T12:51:29;24.77;;;17.13;;
1679;SDS011;838;51.794;12.258;2023-04-16T12:53:55;28.70;;;18.50;;
1679;SDS011;838;51.794;12.258;2023-04-16T12:56:21;30.43;;;20.80;;
1679;SDS011;838;51.794;12.258;2023-04-16T12:58:47;29.83;;;18.37;;
1679;SDS011;838;51.794;12.258;2023-04-16T13:01:19;25.20;;;17.80;;
1679;SDS011;838;51.794;12.258;2023-04-16T13:03:45;23.00;;;18.60;;
1679;SDS011;838;51.794;12.258;2023-04-16T13:06:12;25.23;;;17.30;;
1679;SDS011;838;51.794;12.258;2023-04-16T13:08:39;26.93;;;18.77;;
1679;SDS011;838;51.794;12.258;2023-04-16T13:11:05;21.47;;;16.30;;
1679;SDS011;838;51.794;12.258;2023-04-16T13:13:31;21.10;;;17.10;;
1679;SDS011;838;51.794;12.258;2023-04-16T13:15:57;26.30;;;17.93;;
1679;SDS011;838;51.794;12.258;2023-04-16T13:18:24;20.20;;;15.70;;
1679;SDS011;838;51.794;12.258;2023-04-16T13:20:51;22.33;;;15.40;;
1679;SDS011;838;51.794;12.258;2023-04-16T13:23:17;20.93;;;15.73;;
1679;SDS011;838;51.794;12.258;2023-04-16T13:25:43;18.23;;;13.90;;
1679;SDS011;838;51.794;12.258;2023-04-16T13:28:09;21.50;;;16.20;;
1679;SDS011;838;51.794;12.258;2023-04-16T13:30:35;20.77;;;15.40;;
1679;SDS011;838;51.794;12.258;2023-04-16T13:33:01;19.13;;;14.13;;
1679;SDS011;838;51.794;12.258;2023-04-16T13:35:27;18.27;;;14.47;;
1679;SDS011;838;51.794;12.258;2023-04-16T13:37:53;19.13;;;14.53;;
1679;SDS011;838;51.794;12.258;2023-04-16T13:40:19;20.57;;;14.67;;
1679;SDS011;838;51.794;12.258;2023-04-16T13:42:45;16.67;;;13.00;;
1679;SDS011;838;51.794;12.258;2023-04-16T13:45:11;17.57;;;14.00;;
1679;SDS011;838;51.794;12.258;2023-04-16T13:47:40;17.37;;;13.13;;
1679;SDS011;838;51.794;12.258;2023-04-16T13:50:08;17.27;;;12.53;;
1679;SDS011;838;51.794;12.258;2023-04-16T13:52:35;16.07;;;11.87;;
1679;SDS011;838;51.794;12.258;2023-04-16T13:55:01;15.43;;;12.93;;
1679;SDS011;838;51.794;12.258;2023-04-16T13:57:27;14.27;;;11.13;;
1679;SDS011;838;51.794;12.258;2023-04-16T13:59:55;13.93;;;11.00;;
1679;SDS011;838;51.794;12.258;2023-04-16T14:02:21;16.00;;;13.37;;
1679;SDS011;838;51.794;12.258;2023-04-16T14:04:47;17.20;;;13.17;;
1679;SDS011;838;51.794;12.258;2023-04-16T14:07:13;14.63;;;10.70;;
1679;SDS011;838;51.794;12.258;2023-04-16T14:09:39;13.97;;;11.00;;
1679;SDS011;838;51.794;12.258;2023-04-16T14:12:05;12.87;;;9.37;;
1679;SDS011;838;51.794;12.258;2023-04-16T14:14:31;11.40;;;9.33;;
1679;SDS011;838;51.794;12.258;2023-04-16T14:16:57;13.27;;;8.20;;
1679;SDS011;838;51.794;12.258;2023-04-16T14:19:23;8.63;;;7.07;;
1679;SDS011;838;51.794;12.258;2023-04-16T14:21:49;9.93;;;7.63;;
1679;SDS011;838;51.794;12.258;2023-04-16T14:24:15;10.93;;;8.60;;
1679;SDS011;838;51.794;12.258;2023-04-16T14:26:43;9.87;;;7.73;;
1679;SDS011;838;51.794;12.258;2023-04-16T14:29:09;9.30;;;8.30;;
1679;SDS011;838;51.794;12.258;2023-04-16T14:31:35;12.03;;;9.33;;
1679;SDS011;838;51.794;12.258;2023-04-16T14:34:01;12.07;;;9.30;;
1679;SDS011;838;51.794;12.258;2023-04-16T14:36:27;10.97;;;8.30;;
1679;SDS011;838;51.794;12.258;2023-04-16T14:38:54;12.03;;;9.00;;
1679;SDS011;838;51.794;12.258;2023-04-16T14:41:19;11.23;;;8.80;;
1679;SDS011;838;51.794;12.258;2023-04-16T14:43:45;13.10;;;10.20;;
1679;SDS011;838;51.794;12.258;2023-04-16T14:46:11;13.07;;;10.07;;
1679;SDS011;838;51.794;12.258;2023-04-16T14:48:37;12.87;;;11.00;;
1679;SDS011;838;51.794;12.258;2023-04-16T14:51:03;11.37;;;9.80;;
1679;SDS011;838;51.794;12.258;2023-04-16T14:53:29;13.13;;;10.47;;
1679;SDS011;838;51.794;12.258;2023-04-16T14:55:55;13.80;;;10.87;;
1679;SDS011;838;51.794;12.258;2023-04-16T14:58:22;15.03;;;11.60;;
1679;SDS011;838;51.794;12.258;2023-04-16T15:00:49;14.40;;;11.43;;
1679;SDS011;838;51.794;12.258;2023-04-16T15:03:14;15.53;;;13.10;;
1679;SDS011;838;51.794;12.258;2023-04-16T15:05:40;14.60;;;11.90;;
1679;SDS011;838;51.794;12.258;2023-04-16T15:08:06;14.23;;;12.17;;